Urb Las 500, Puerto Rico
Current Conditions -  °F | °C
As of 7:56 PM on Thursday 25 Dec 2014 (Local Time) from TJSJ Reporting Station
Scattered Clouds Scattered Clouds  
Wind Chill: 77°   Ceiling: Unl
Heat Index: 78°   Visibility: 10mi
Dew Point: 73°   Wind: 9mph
Humidity: 88%   Direction: 70°ENE
Pressure: 30.07"   Gusts: NA
Location:  17.9678°N, 66.0617°W
Report Text: TJSJ 252356Z 07008KT 10SM FEW026 SCT036 25/23 A3007 RMK AO2 RAB37E51 SLP181 VCSH W P0000 60003 T02500228 10289 20250 53010
Loading
Personal Weather Stations






























Interactive Weather Map New forecast layout! Learn more

10-Day Weather Forecast

Advertisements
Track Severe Weather on mobile